Aérodrome :
LOGIN :

S'inscrire | Disclaimer

   EN    FR    IT 

 










Légende :    VFR   VFR Marginal   IFR   IFR Intensif   IFR Très Intensif
Visi : 
Plafond : 
>= 8 km
>= 3000ft
5 à 8 km
1000 à 3000 ft
1500m à 5 km
500 à 1000 ft
800 à 1500m
200 à 500 ft
< 800m
< 200 ft
Symboles :   Orages  Brouillard  Fortes neiges  Fortes précipitations  Vent > 20 kt
SIGMETs :   Divers  Orages  Givrage  Turbulence  Onde Orograph.  Cendres Volcan.






- Altitude de l'aérodrome : 141 ft
- Code IATA : TGD


LYPG - Podgorica - Montenegro

DERNIER METAR :
  • 290800Z 08004KT 9999 FEW040 21/04 Q1018 NOSIG

METARs EXPIRÉS :
  • 290730Z 32001KT 9999 FEW040 21/05 Q1018 NOSIG
  • 290700Z 07003KT 010V140 9999 FEW100 19/05 Q1018 NOSIG
  • 290630Z 07003KT 010V130 9999 SCT100 18/06 Q1018 NOSIG
  • 290600Z 35006KT 310V020 9999 SCT100 18/05 Q1018 NOSIG
  • 290530Z 33005KT 300V360 9999 SCT100 16/05 Q1018 NOSIG

TAF TAF LYPG
Valide du 29 à 06h jusqu'au 30 à 06h UTC


290500Z 2906/3006 36005KT 9999 FEW040 TX23/2913Z TN11/3003Z
PROB40
TEMPO 2912/2917 5000 -SHRA FEW033TCU BKN040



MET'MAP, la Météo Aéronautique d'un coup d'oeil ! - Copyright ORBIFLY Décembre 2007 - Disclaimer

ORBIFLY MET'MAP TEAM :

Programmation & Développement : Alexandra Zaïnal
Sur une idée originale de : Baudouin d'Aumeries
Assistance à la programmation : Marc-Olivier Méhu
Soutien technique & logistique : Manuel Goepfert

Contact : metmap@orbifly.com




SOURCES & CREDITS :

   NOAA